07h05 EDT


 

Suivi/Infos de l'aéroport


-ou-


 

Suivi des vols en temps réel9Y-TTC ✈ 08-05-2013 ✈ TTPP / POS - TTCP / TAB

Thumbnail
9Y-TTC / BWA1506
Unknown Owner · Trinidad & Tobago
Piarco Int'l ( – info)
Port-d'Espagne TT
Crown Point ( – info)
Scarborough, Tobago TT
Prévu: 08h10 AST
Prévu: 08h15 AST
Durée: 16 minutes
mercredi, 8 mai 2013
Statut Arrivé il y a plus d'un an. (journal de vol & graphique)
Avion Aerospatiale ATR-42-300 (bi-turbopropulseur) (AT43 – photos)
Vitesse Plan de vol: 532 kts (graphique)
Distance En ligne droite 83 km
Une partie au moins de ce vol se déroule hors de la zone de services primaire de FlightAware. Pour en savoir plus sur la couverture et la zone de services de FlightAware.
JOURNAL DE L'ACTIVITE
Vous voulez une recherche complète sur l'historique de 9Y-TTC depuis 1998? Achetez maintenant. Recevez-le dans l'heure.
Date Avion Provenance Destination Départ Arrivée Durée
01-10-2014 AT72Piarco Int'l ()Int'l Grantley-Adams () 06h01 AST 06h51 AST 0:50
01-10-2014 AT72Crown Point ()Piarco Int'l () 01h27 AST 01h42 AST 0:14
01-10-2014 AT72Piarco Int'l ()Crown Point () 00h43 AST 00h58 AST 0:14
30-09-2014 AT43Crown Point ()Piarco Int'l () 23h29 AST 23h42 AST 0:12
30-09-2014 AT43Piarco Int'l ()Crown Point () 22h39 AST 22h54 AST 0:14
30-09-2014 AT43Crown Point ()Piarco Int'l () 21h39 AST 21h57 AST 0:18
30-09-2014 AT43Piarco Int'l ()Crown Point () 20h46 AST 21h01 AST 0:14
30-09-2014 AT43Crown Point ()Piarco Int'l () 13h11 AST 13h27 AST 0:16
30-09-2014 AT43Piarco Int'l ()Crown Point () 12h23 AST 12h38 AST 0:14
30-09-2014 AT43Int'l Maiquetía ~ Simón Bolívar ()Piarco Int'l () 09h17 VET 11h18 AST 1:31
30-09-2014 AT43Piarco Int'l ()Int'l Maiquetía ~ Simón Bolívar () 07h02 AST 08h00 VET 1:27
30-09-2014 AT43Crown Point ()Piarco Int'l () 01h29 AST 01h47 AST 0:18
30-09-2014 AT43Piarco Int'l ()Crown Point () 00h42 AST 00h56 AST 0:13
29-09-2014 AT43Crown Point ()Piarco Int'l () 23h41 AST 00h02 AST (+1) 0:21
29-09-2014 AT43Piarco Int'l ()Crown Point () 22h53 AST 23h07 AST 0:13
29-09-2014 AT43Crown Point ()Piarco Int'l () 21h49 AST 22h10 AST 0:21
29-09-2014 AT43Piarco Int'l ()Crown Point () 21h03 AST 21h21 AST 0:17
29-09-2014 AT43Crown Point ()Piarco Int'l () 16h59 AST 17h15 AST 0:16
29-09-2014 AT43Piarco Int'l ()Crown Point () 15h54 AST 16h10 AST 0:16
29-09-2014 AT43Crown Point ()Piarco Int'l () 14h45 AST 14h56 AST 0:10
29-09-2014 AT43Piarco Int'l ()Crown Point () 13h41 AST 13h57 AST 0:16
29-09-2014 AT43Crown Point ()Piarco Int'l () 11h27 AST 11h47 AST 0:20
29-09-2014 AT43Piarco Int'l ()Crown Point () 10h25 AST 10h45 AST 0:19
29-09-2014 AT43Crown Point ()Piarco Int'l () 09h12 AST 09h31 AST 0:19
29-09-2014 AT43Piarco Int'l ()Crown Point () 08h23 AST 08h37 AST 0:13
29-09-2014 AT43Crown Point ()Piarco Int'l () 07h14 AST 07h33 AST 0:19
29-09-2014 AT43Piarco Int'l ()Crown Point () 06h22 AST 06h41 AST 0:18
28-09-2014 AT43Crown Point ()Piarco Int'l () 19h33 AST 19h55 AST 0:22
28-09-2014 AT43Crown Point ()Piarco Int'l () 17h25 AST 17h45 AST 0:20
28-09-2014 AT43Piarco Int'l ()Crown Point () 16h22 AST 16h38 AST 0:16
28-09-2014 AT43Crown Point ()Piarco Int'l () 15h23 AST 15h37 AST 0:13
28-09-2014 AT43Piarco Int'l ()Crown Point () 14h30 AST 14h46 AST 0:16
28-09-2014 AT43Crown Point ()Piarco Int'l () 12h58 AST 13h16 AST 0:18
28-09-2014 AT43Piarco Int'l ()Crown Point () 12h00 AST 12h17 AST 0:16
28-09-2014 AT43Crown Point ()Piarco Int'l () 11h03 AST 11h20 AST 0:17
28-09-2014 AT43Piarco Int'l ()Crown Point () 10h11 AST 10h25 AST 0:13
28-09-2014 AT43Crown Point ()Piarco Int'l () 08h54 AST 09h12 AST 0:18
28-09-2014 AT43Piarco Int'l ()Crown Point () 08h06 AST 08h20 AST 0:13
28-09-2014 AT43Crown Point ()Piarco Int'l () 07h12 AST 07h29 AST 0:17
28-09-2014 AT43Piarco Int'l ()Crown Point () 06h19 AST 06h34 AST 0:14
27-09-2014 AT43Int'l Grantley-Adams ()Piarco Int'l () 20h52 AST 21h46 AST 0:53
27-09-2014 AT43Piarco Int'l ()Int'l Grantley-Adams () 19h26 AST 20h15 AST 0:48
27-09-2014 AT43Crown Point ()Piarco Int'l () 15h16 AST 15h36 AST 0:20
27-09-2014 AT43Piarco Int'l ()Crown Point () 14h21 AST 14h35 AST 0:13
26-09-2014 AT43Crown Point ()Piarco Int'l () 20h39 AST 21h01 AST 0:22
26-09-2014 AT43Piarco Int'l ()Crown Point () 19h41 AST 19h58 AST 0:16
26-09-2014 AT43Crown Point ()Piarco Int'l () 18h33 AST 18h55 AST 0:22
26-09-2014 AT43Piarco Int'l ()Crown Point () 17h38 AST 17h57 AST 0:19
26-09-2014 AT43George F. L. Charles ()Piarco Int'l () 15h26 AST 16h25 AST 0:59
26-09-2014 AT43Piarco Int'l ()George F. L. Charles () 14h03 AST 14h57 AST 0:53
26-09-2014 AT43Crown Point ()Piarco Int'l () 12h52 AST 13h06 AST 0:14
26-09-2014 AT43Piarco Int'l ()Crown Point () 12h01 AST 12h14 AST 0:12
26-09-2014 AT43Crown Point ()Piarco Int'l () 10h56 AST 11h12 AST 0:15
26-09-2014 AT43Piarco Int'l ()Crown Point () 09h56 AST 10h10 AST 0:13
26-09-2014 AT43Crown Point ()Piarco Int'l () 08h54 AST 09h08 AST 0:13
26-09-2014 AT43Piarco Int'l ()Crown Point () 07h52 AST 08h06 AST 0:13
26-09-2014 AT43Crown Point ()Piarco Int'l () 06h42 AST 07h01 AST 0:19
26-09-2014 AT43Piarco Int'l ()Crown Point () 05h50 AST 06h07 AST 0:17
25-09-2014 AT43Int'l Grantley-Adams ()Piarco Int'l () 21h01 AST 21h54 AST 0:53
25-09-2014 AT43Piarco Int'l ()Int'l Grantley-Adams () 19h27 AST 20h16 AST 0:48
25-09-2014 AT43Crown Point ()Piarco Int'l () 16h31 AST 16h42 AST 0:10
25-09-2014 AT43Piarco Int'l ()Crown Point () 15h31 AST 15h47 AST 0:16
25-09-2014 AT43Crown Point ()Piarco Int'l () 14h27 AST 14h46 AST 0:19
25-09-2014 AT43Piarco Int'l ()Crown Point () 13h34 AST 13h51 AST 0:17
25-09-2014 AT43Crown Point ()Piarco Int'l () 10h04 AST 10h24 AST 0:20
25-09-2014 AT43Piarco Int'l ()Crown Point () 09h09 AST 09h24 AST 0:15
25-09-2014 AT43Int'l Grantley-Adams ()Piarco Int'l () 07h23 AST 08h16 AST 0:53
25-09-2014 AT43Piarco Int'l ()Int'l Grantley-Adams () 05h54 AST 06h46 AST 0:52
24-09-2014 AT43Crown Point ()Piarco Int'l () 19h35 AST 20h00 AST 0:25
24-09-2014 AT43Piarco Int'l ()Crown Point () 18h47 AST 19h02 AST 0:14
24-09-2014 AT43Crown Point ()Piarco Int'l () 17h55 AST 18h12 AST 0:17
24-09-2014 AT43Piarco Int'l ()Crown Point () 17h09 AST 17h22 AST 0:12
24-09-2014 AT43Crown Point ()Piarco Int'l () 13h14 AST 13h33 AST 0:19
24-09-2014 AT43Piarco Int'l ()Crown Point () 12h13 AST 12h29 AST 0:15
24-09-2014 AT43Crown Point ()Piarco Int'l () 09h44 AST 10h00 AST 0:15
24-09-2014 AT43Piarco Int'l ()Crown Point () 08h49 AST 09h05 AST 0:15
24-09-2014 AT43Crown Point ()Piarco Int'l () 07h30 AST 07h50 AST 0:20
24-09-2014 AT43Piarco Int'l ()Crown Point () 06h27 AST 06h44 AST 0:16
23-09-2014 AT43Crown Point ()Piarco Int'l () 20h12 AST 20h30 AST 0:18
23-09-2014 AT43Piarco Int'l ()Crown Point () 19h26 AST 19h42 AST 0:15
23-09-2014 AT43Crown Point ()Piarco Int'l () 18h28 AST 18h40 AST 0:11
23-09-2014 AT43Piarco Int'l ()Crown Point () 17h34 AST 17h49 AST 0:14
23-09-2014 AT43George F. L. Charles ()Piarco Int'l () 15h11 AST 16h10 AST 0:59
23-09-2014 AT43Piarco Int'l ()George F. L. Charles () 13h46 AST 14h42 AST 0:55
23-09-2014 AT43Crown Point ()Piarco Int'l () 10h11 AST 10h26 AST 0:15
23-09-2014 AT43Piarco Int'l ()Crown Point () 09h19 AST 09h34 AST 0:14
23-09-2014 AT43Int'l Grantley-Adams ()Piarco Int'l () 07h18 AST 08h09 AST 0:51
23-09-2014 AT43Piarco Int'l ()Int'l Grantley-Adams () 05h55 AST 06h42 AST 0:47
22-09-2014 AT43Int'l Grantley-Adams ()Piarco Int'l () 20h56 AST 21h50 AST 0:53
22-09-2014 AT43Piarco Int'l ()Int'l Grantley-Adams () 19h33 AST 20h25 AST 0:51
22-09-2014 AT43Crown Point ()Piarco Int'l () 16h31 AST 16h50 AST 0:19
22-09-2014 AT43Piarco Int'l ()Crown Point () 15h43 AST 15h58 AST 0:14
22-09-2014 AT43Crown Point ()Piarco Int'l () 14h43 AST 15h03 AST 0:20
22-09-2014 AT43Piarco Int'l ()Crown Point () 13h56 AST 14h10 AST 0:13
22-09-2014 AT43Crown Point ()Piarco Int'l () 12h36 AST 12h57 AST 0:21
22-09-2014 AT43Piarco Int'l ()Crown Point () 11h38 AST 11h54 AST 0:15
22-09-2014 AT43Piarco Int'l ()Point Salines Int'l () 08h32 AST 09h07 AST 0:34
21-09-2014 AT43Int'l Grantley-Adams ()Piarco Int'l () 22h04 AST 22h54 AST 0:49
21-09-2014 AT43Piarco Int'l ()Int'l Grantley-Adams () 20h37 AST 21h23 AST 0:46
Les membres inscrits (l'inscription est gratuite et facile!) voient 4 months d'historique. S'inscrire